sensor_id;sensor_type;location;lat;lon;timestamp;P1;durP1;ratioP1;P2;durP2;ratioP2
49183;SDS011;35021;49.214;12.270;2022-09-09T00:03:53;0.85;;;0.52;;
49183;SDS011;35021;49.214;12.270;2022-09-09T00:06:36;1.63;;;0.40;;
49183;SDS011;35021;49.214;12.270;2022-09-09T00:09:17;1.40;;;0.52;;
49183;SDS011;35021;49.214;12.270;2022-09-09T00:11:48;1.00;;;0.60;;
49183;SDS011;35021;49.214;12.270;2022-09-09T00:19:52;0.90;;;0.50;;
49183;SDS011;35021;49.214;12.270;2022-09-09T00:22:29;0.60;;;0.60;;
49183;SDS011;35021;49.214;12.270;2022-09-09T00:25:16;1.90;;;0.70;;
49183;SDS011;35021;49.214;12.270;2022-09-09T00:27:49;2.08;;;0.63;;
49183;SDS011;35021;49.214;12.270;2022-09-09T00:30:22;2.25;;;0.70;;
49183;SDS011;35021;49.214;12.270;2022-09-09T00:32:54;1.23;;;0.65;;
49183;SDS011;35021;49.214;12.270;2022-09-09T00:38:08;3.03;;;0.50;;
49183;SDS011;35021;49.214;12.270;2022-09-09T00:45:55;1.30;;;0.60;;
49183;SDS011;35021;49.214;12.270;2022-09-09T00:48:32;1.30;;;0.60;;
49183;SDS011;35021;49.214;12.270;2022-09-09T00:57:04;2.45;;;0.80;;
49183;SDS011;35021;49.214;12.270;2022-09-09T01:00:33;1.80;;;0.93;;
49183;SDS011;35021;49.214;12.270;2022-09-09T01:06:00;0.65;;;0.50;;
49183;SDS011;35021;49.214;12.270;2022-09-09T01:11:21;1.23;;;0.45;;
49183;SDS011;35021;49.214;12.270;2022-09-09T01:13:56;2.53;;;0.60;;
49183;SDS011;35021;49.214;12.270;2022-09-09T01:16:36;2.22;;;0.60;;
49183;SDS011;35021;49.214;12.270;2022-09-09T01:19:03;3.53;;;0.88;;
49183;SDS011;35021;49.214;12.270;2022-09-09T01:21:41;2.08;;;0.73;;
49183;SDS011;35021;49.214;12.270;2022-09-09T01:26:46;1.75;;;0.70;;
49183;SDS011;35021;49.214;12.270;2022-09-09T01:29:17;2.63;;;1.10;;
49183;SDS011;35021;49.214;12.270;2022-09-09T01:31:54;2.60;;;0.80;;
49183;SDS011;35021;49.214;12.270;2022-09-09T01:34:24;1.05;;;0.65;;
49183;SDS011;35021;49.214;12.270;2022-09-09T01:37:07;2.05;;;0.57;;
49183;SDS011;35021;49.214;12.270;2022-09-09T01:39:37;1.27;;;0.80;;
49183;SDS011;35021;49.214;12.270;2022-09-09T01:42:07;3.22;;;0.82;;
49183;SDS011;35021;49.214;12.270;2022-09-09T01:44:37;3.83;;;0.70;;
49183;SDS011;35021;49.214;12.270;2022-09-09T01:47:04;1.23;;;0.70;;
49183;SDS011;35021;49.214;12.270;2022-09-09T01:49:32;2.42;;;0.63;;
49183;SDS011;35021;49.214;12.270;2022-09-09T01:51:59;1.45;;;0.80;;
49183;SDS011;35021;49.214;12.270;2022-09-09T01:54:26;0.98;;;0.80;;
49183;SDS011;35021;49.214;12.270;2022-09-09T02:05:38;1.48;;;0.80;;
49183;SDS011;35021;49.214;12.270;2022-09-09T02:08:07;1.67;;;0.82;;
49183;SDS011;35021;49.214;12.270;2022-09-09T02:10:41;1.77;;;0.60;;
49183;SDS011;35021;49.214;12.270;2022-09-09T02:13:13;1.45;;;0.60;;
49183;SDS011;35021;49.214;12.270;2022-09-09T02:18:12;1.50;;;0.60;;
49183;SDS011;35021;49.214;12.270;2022-09-09T02:20:43;0.52;;;0.50;;
49183;SDS011;35021;49.214;12.270;2022-09-09T02:23:11;3.10;;;0.60;;
49183;SDS011;35021;49.214;12.270;2022-09-09T02:25:40;1.10;;;0.75;;
49183;SDS011;35021;49.214;12.270;2022-09-09T02:28:09;1.98;;;0.85;;
49183;SDS011;35021;49.214;12.270;2022-09-09T02:30:39;1.95;;;0.63;;
49183;SDS011;35021;49.214;12.270;2022-09-09T02:33:08;0.52;;;0.40;;
49183;SDS011;35021;49.214;12.270;2022-09-09T02:35:39;1.65;;;0.57;;
49183;SDS011;35021;49.214;12.270;2022-09-09T02:38:09;1.25;;;0.50;;
49183;SDS011;35021;49.214;12.270;2022-09-09T02:40:41;3.03;;;0.90;;
49183;SDS011;35021;49.214;12.270;2022-09-09T02:43:08;0.80;;;0.50;;
49183;SDS011;35021;49.214;12.270;2022-09-09T02:45:48;2.85;;;0.70;;
49183;SDS011;35021;49.214;12.270;2022-09-09T02:48:30;2.75;;;0.63;;
49183;SDS011;35021;49.214;12.270;2022-09-09T02:51:23;0.70;;;0.50;;
49183;SDS011;35021;49.214;12.270;2022-09-09T02:54:09;1.15;;;0.50;;
49183;SDS011;35021;49.214;12.270;2022-09-09T02:56:45;0.70;;;0.60;;
49183;SDS011;35021;49.214;12.270;2022-09-09T02:59:18;1.77;;;0.70;;
49183;SDS011;35021;49.214;12.270;2022-09-09T03:01:45;0.82;;;0.52;;
49183;SDS011;35021;49.214;12.270;2022-09-09T03:04:12;1.55;;;0.70;;
49183;SDS011;35021;49.214;12.270;2022-09-09T03:06:39;2.17;;;0.60;;
49183;SDS011;35021;49.214;12.270;2022-09-09T03:09:06;0.63;;;0.50;;
49183;SDS011;35021;49.214;12.270;2022-09-09T03:11:34;1.98;;;0.60;;
49183;SDS011;35021;49.214;12.270;2022-09-09T03:14:01;1.85;;;0.70;;
49183;SDS011;35021;49.214;12.270;2022-09-09T03:16:28;2.90;;;0.60;;
49183;SDS011;35021;49.214;12.270;2022-09-09T03:18:56;0.93;;;0.50;;
49183;SDS011;35021;49.214;12.270;2022-09-09T03:21:22;1.65;;;0.85;;
49183;SDS011;35021;49.214;12.270;2022-09-09T03:23:49;2.00;;;0.85;;
49183;SDS011;35021;49.214;12.270;2022-09-09T03:26:16;1.55;;;0.90;;
49183;SDS011;35021;49.214;12.270;2022-09-09T03:28:43;1.08;;;0.55;;
49183;SDS011;35021;49.214;12.270;2022-09-09T03:31:11;2.88;;;0.70;;
49183;SDS011;35021;49.214;12.270;2022-09-09T03:33:38;1.65;;;0.80;;
49183;SDS011;35021;49.214;12.270;2022-09-09T03:36:05;1.20;;;0.60;;
49183;SDS011;35021;49.214;12.270;2022-09-09T03:38:33;0.65;;;0.65;;
49183;SDS011;35021;49.214;12.270;2022-09-09T03:41:00;1.15;;;0.65;;
49183;SDS011;35021;49.214;12.270;2022-09-09T03:43:28;2.58;;;0.60;;
49183;SDS011;35021;49.214;12.270;2022-09-09T03:45:55;4.05;;;1.10;;
49183;SDS011;35021;49.214;12.270;2022-09-09T03:48:25;1.50;;;0.80;;
49183;SDS011;35021;49.214;12.270;2022-09-09T03:50:54;1.05;;;0.60;;
49183;SDS011;35021;49.214;12.270;2022-09-09T03:53:24;1.92;;;0.70;;
49183;SDS011;35021;49.214;12.270;2022-09-09T03:55:52;1.10;;;0.57;;
49183;SDS011;35021;49.214;12.270;2022-09-09T03:58:21;3.13;;;0.70;;
49183;SDS011;35021;49.214;12.270;2022-09-09T04:01:01;1.58;;;0.75;;
49183;SDS011;35021;49.214;12.270;2022-09-09T04:03:30;2.08;;;0.80;;
49183;SDS011;35021;49.214;12.270;2022-09-09T04:05:57;5.10;;;0.70;;
49183;SDS011;35021;49.214;12.270;2022-09-09T04:08:26;2.25;;;0.68;;
49183;SDS011;35021;49.214;12.270;2022-09-09T04:10:53;3.08;;;0.77;;
49183;SDS011;35021;49.214;12.270;2022-09-09T04:13:24;2.05;;;0.60;;
49183;SDS011;35021;49.214;12.270;2022-09-09T04:15:55;2.65;;;0.65;;
49183;SDS011;35021;49.214;12.270;2022-09-09T04:18:24;2.10;;;0.60;;
49183;SDS011;35021;49.214;12.270;2022-09-09T04:20:52;1.15;;;0.60;;
49183;SDS011;35021;49.214;12.270;2022-09-09T04:23:19;0.85;;;0.50;;
49183;SDS011;35021;49.214;12.270;2022-09-09T04:25:47;0.68;;;0.68;;
49183;SDS011;35021;49.214;12.270;2022-09-09T04:28:16;1.60;;;0.80;;
49183;SDS011;35021;49.214;12.270;2022-09-09T04:30:43;0.75;;;0.65;;
49183;SDS011;35021;49.214;12.270;2022-09-09T04:33:11;2.85;;;0.70;;
49183;SDS011;35021;49.214;12.270;2022-09-09T04:35:43;0.88;;;0.60;;
49183;SDS011;35021;49.214;12.270;2022-09-09T04:38:15;2.93;;;0.77;;
49183;SDS011;35021;49.214;12.270;2022-09-09T04:40:43;1.70;;;0.80;;
49183;SDS011;35021;49.214;12.270;2022-09-09T04:43:13;1.73;;;0.63;;
49183;SDS011;35021;49.214;12.270;2022-09-09T04:45:41;3.05;;;0.70;;
49183;SDS011;35021;49.214;12.270;2022-09-09T04:48:08;1.08;;;0.68;;
49183;SDS011;35021;49.214;12.270;2022-09-09T04:50:38;2.25;;;0.80;;
49183;SDS011;35021;49.214;12.270;2022-09-09T04:53:05;1.17;;;0.77;;
49183;SDS011;35021;49.214;12.270;2022-09-09T04:55:32;1.05;;;0.70;;
49183;SDS011;35021;49.214;12.270;2022-09-09T04:58:04;2.35;;;0.80;;
49183;SDS011;35021;49.214;12.270;2022-09-09T05:00:32;1.45;;;0.70;;
49183;SDS011;35021;49.214;12.270;2022-09-09T05:03:04;1.00;;;0.73;;
49183;SDS011;35021;49.214;12.270;2022-09-09T05:05:32;3.47;;;0.90;;
49183;SDS011;35021;49.214;12.270;2022-09-09T05:08:05;2.05;;;0.80;;
49183;SDS011;35021;49.214;12.270;2022-09-09T05:10:36;2.35;;;0.77;;
49183;SDS011;35021;49.214;12.270;2022-09-09T05:13:04;1.02;;;0.73;;
49183;SDS011;35021;49.214;12.270;2022-09-09T05:15:32;1.23;;;0.80;;
49183;SDS011;35021;49.214;12.270;2022-09-09T05:18:00;2.88;;;1.05;;
49183;SDS011;35021;49.214;12.270;2022-09-09T05:20:27;3.65;;;1.02;;
49183;SDS011;35021;49.214;12.270;2022-09-09T05:22:55;2.95;;;1.00;;
49183;SDS011;35021;49.214;12.270;2022-09-09T05:25:22;2.85;;;1.20;;
49183;SDS011;35021;49.214;12.270;2022-09-09T05:27:52;4.15;;;1.33;;
49183;SDS011;35021;49.214;12.270;2022-09-09T05:30:20;1.88;;;1.35;;
49183;SDS011;35021;49.214;12.270;2022-09-09T05:32:49;2.75;;;1.20;;
49183;SDS011;35021;49.214;12.270;2022-09-09T05:35:16;4.63;;;1.40;;
49183;SDS011;35021;49.214;12.270;2022-09-09T05:37:45;3.95;;;1.85;;
49183;SDS011;35021;49.214;12.270;2022-09-09T05:40:12;1.98;;;1.25;;
49183;SDS011;35021;49.214;12.270;2022-09-09T05:42:39;3.00;;;1.50;;
49183;SDS011;35021;49.214;12.270;2022-09-09T05:45:07;2.47;;;1.48;;
49183;SDS011;35021;49.214;12.270;2022-09-09T05:47:35;2.28;;;1.30;;
49183;SDS011;35021;49.214;12.270;2022-09-09T05:50:03;1.75;;;1.38;;
49183;SDS011;35021;49.214;12.270;2022-09-09T05:52:31;3.03;;;1.40;;
49183;SDS011;35021;49.214;12.270;2022-09-09T05:54:58;1.55;;;1.35;;
49183;SDS011;35021;49.214;12.270;2022-09-09T05:57:25;3.97;;;1.20;;
49183;SDS011;35021;49.214;12.270;2022-09-09T05:59:52;1.30;;;1.17;;
49183;SDS011;35021;49.214;12.270;2022-09-09T06:02:19;2.50;;;1.10;;
49183;SDS011;35021;49.214;12.270;2022-09-09T06:04:47;4.53;;;1.30;;
49183;SDS011;35021;49.214;12.270;2022-09-09T06:07:13;1.65;;;1.00;;
49183;SDS011;35021;49.214;12.270;2022-09-09T06:09:40;2.25;;;1.20;;
49183;SDS011;35021;49.214;12.270;2022-09-09T06:12:07;2.78;;;1.40;;
49183;SDS011;35021;49.214;12.270;2022-09-09T06:14:35;3.38;;;1.20;;
49183;SDS011;35021;49.214;12.270;2022-09-09T06:17:03;2.03;;;1.30;;
49183;SDS011;35021;49.214;12.270;2022-09-09T06:19:30;3.10;;;1.25;;
49183;SDS011;35021;49.214;12.270;2022-09-09T06:21:57;1.58;;;1.20;;
49183;SDS011;35021;49.214;12.270;2022-09-09T06:24:24;2.08;;;1.30;;
49183;SDS011;35021;49.214;12.270;2022-09-09T06:26:51;2.60;;;1.10;;
49183;SDS011;35021;49.214;12.270;2022-09-09T06:29:18;2.88;;;1.10;;
49183;SDS011;35021;49.214;12.270;2022-09-09T06:31:44;3.45;;;0.93;;
49183;SDS011;35021;49.214;12.270;2022-09-09T06:34:11;3.03;;;1.30;;
49183;SDS011;35021;49.214;12.270;2022-09-09T06:36:39;1.15;;;1.00;;
49183;SDS011;35021;49.214;12.270;2022-09-09T06:39:06;1.67;;;1.00;;
49183;SDS011;35021;49.214;12.270;2022-09-09T06:41:40;3.33;;;1.10;;
49183;SDS011;35021;49.214;12.270;2022-09-09T06:44:08;1.10;;;0.90;;
49183;SDS011;35021;49.214;12.270;2022-09-09T06:46:38;1.58;;;0.90;;
49183;SDS011;35021;49.214;12.270;2022-09-09T06:49:07;1.42;;;0.82;;
49183;SDS011;35021;49.214;12.270;2022-09-09T06:51:35;1.23;;;1.00;;
49183;SDS011;35021;49.214;12.270;2022-09-09T06:54:08;2.50;;;0.98;;
49183;SDS011;35021;49.214;12.270;2022-09-09T06:56:37;1.52;;;1.13;;
49183;SDS011;35021;49.214;12.270;2022-09-09T06:59:08;2.90;;;1.30;;
49183;SDS011;35021;49.214;12.270;2022-09-09T07:01:36;1.55;;;1.10;;
49183;SDS011;35021;49.214;12.270;2022-09-09T07:04:07;1.85;;;1.30;;
49183;SDS011;35021;49.214;12.270;2022-09-09T07:06:36;3.03;;;1.20;;
49183;SDS011;35021;49.214;12.270;2022-09-09T07:09:10;1.90;;;1.25;;
49183;SDS011;35021;49.214;12.270;2022-09-09T07:11:42;1.88;;;1.30;;
49183;SDS011;35021;49.214;12.270;2022-09-09T07:14:11;2.47;;;1.17;;
49183;SDS011;35021;49.214;12.270;2022-09-09T07:16:43;1.77;;;0.93;;
49183;SDS011;35021;49.214;12.270;2022-09-09T07:19:12;1.90;;;1.27;;
49183;SDS011;35021;49.214;12.270;2022-09-09T07:21:40;4.60;;;1.38;;
49183;SDS011;35021;49.214;12.270;2022-09-09T07:24:07;3.10;;;1.20;;
49183;SDS011;35021;49.214;12.270;2022-09-09T07:26:36;1.25;;;1.10;;
49183;SDS011;35021;49.214;12.270;2022-09-09T07:29:04;3.53;;;1.30;;
49183;SDS011;35021;49.214;12.270;2022-09-09T07:31:33;2.53;;;1.27;;
49183;SDS011;35021;49.214;12.270;2022-09-09T07:34:02;2.20;;;1.00;;
49183;SDS011;35021;49.214;12.270;2022-09-09T07:36:31;2.22;;;1.10;;
49183;SDS011;35021;49.214;12.270;2022-09-09T07:39:01;2.88;;;1.35;;
49183;SDS011;35021;49.214;12.270;2022-09-09T07:41:34;1.25;;;1.00;;
49183;SDS011;35021;49.214;12.270;2022-09-09T07:44:24;1.45;;;0.77;;
49183;SDS011;35021;49.214;12.270;2022-09-09T07:49:20;1.75;;;1.10;;
49183;SDS011;35021;49.214;12.270;2022-09-09T07:51:53;2.53;;;1.05;;
49183;SDS011;35021;49.214;12.270;2022-09-09T07:54:20;2.13;;;0.98;;
49183;SDS011;35021;49.214;12.270;2022-09-09T07:56:50;1.52;;;1.10;;
49183;SDS011;35021;49.214;12.270;2022-09-09T07:59:18;3.22;;;1.10;;
49183;SDS011;35021;49.214;12.270;2022-09-09T08:01:46;2.33;;;0.93;;
49183;SDS011;35021;49.214;12.270;2022-09-09T08:04:16;1.67;;;0.82;;
49183;SDS011;35021;49.214;12.270;2022-09-09T08:06:45;1.35;;;1.00;;
49183;SDS011;35021;49.214;12.270;2022-09-09T08:09:14;4.82;;;0.90;;
49183;SDS011;35021;49.214;12.270;2022-09-09T08:11:44;1.17;;;1.08;;
49183;SDS011;35021;49.214;12.270;2022-09-09T08:14:11;1.08;;;0.80;;
49183;SDS011;35021;49.214;12.270;2022-09-09T08:16:40;1.00;;;0.70;;
49183;SDS011;35021;49.214;12.270;2022-09-09T08:19:09;0.95;;;0.85;;
49183;SDS011;35021;49.214;12.270;2022-09-09T08:21:37;1.00;;;0.80;;
49183;SDS011;35021;49.214;12.270;2022-09-09T08:24:07;1.92;;;0.90;;
49183;SDS011;35021;49.214;12.270;2022-09-09T08:26:35;0.80;;;0.60;;
49183;SDS011;35021;49.214;12.270;2022-09-09T08:29:05;2.13;;;1.05;;
49183;SDS011;35021;49.214;12.270;2022-09-09T08:31:34;1.67;;;0.80;;
49183;SDS011;35021;49.214;12.270;2022-09-09T08:34:05;1.00;;;0.68;;
49183;SDS011;35021;49.214;12.270;2022-09-09T08:36:34;1.50;;;0.77;;
49183;SDS011;35021;49.214;12.270;2022-09-09T08:39:03;0.77;;;0.70;;
49183;SDS011;35021;49.214;12.270;2022-09-09T08:52:47;1.20;;;0.80;;
49183;SDS011;35021;49.214;12.270;2022-09-09T08:58:02;1.38;;;0.70;;
49183;SDS011;35021;49.214;12.270;2022-09-09T09:03:43;2.10;;;0.68;;
49183;SDS011;35021;49.214;12.270;2022-09-09T09:08:58;1.50;;;0.80;;
49183;SDS011;35021;49.214;12.270;2022-09-09T09:11:38;2.15;;;0.90;;
49183;SDS011;35021;49.214;12.270;2022-09-09T09:14:11;1.60;;;0.73;;
49183;SDS011;35021;49.214;12.270;2022-09-09T09:17:05;1.23;;;0.82;;
49183;SDS011;35021;49.214;12.270;2022-09-09T09:19:35;0.95;;;0.65;;
49183;SDS011;35021;49.214;12.270;2022-09-09T09:22:10;0.95;;;0.73;;
49183;SDS011;35021;49.214;12.270;2022-09-09T09:30:23;1.10;;;1.00;;
49183;SDS011;35021;49.214;12.270;2022-09-09T09:32:58;1.02;;;0.75;;
49183;SDS011;35021;49.214;12.270;2022-09-09T09:35:34;1.27;;;0.80;;
49183;SDS011;35021;49.214;12.270;2022-09-09T09:38:17;2.33;;;0.85;;
49183;SDS011;35021;49.214;12.270;2022-09-09T09:41:06;2.35;;;0.98;;
49183;SDS011;35021;49.214;12.270;2022-09-09T09:43:34;1.02;;;0.60;;
49183;SDS011;35021;49.214;12.270;2022-09-09T09:46:17;1.40;;;0.70;;
49183;SDS011;35021;49.214;12.270;2022-09-09T09:48:57;1.83;;;0.77;;
49183;SDS011;35021;49.214;12.270;2022-09-09T09:51:24;1.88;;;0.80;;
49183;SDS011;35021;49.214;12.270;2022-09-09T09:53:52;1.20;;;0.75;;
49183;SDS011;35021;49.214;12.270;2022-09-09T09:56:27;1.20;;;0.88;;
49183;SDS011;35021;49.214;12.270;2022-09-09T09:58:59;1.30;;;0.60;;
49183;SDS011;35021;49.214;12.270;2022-09-09T10:01:34;1.35;;;0.70;;
49183;SDS011;35021;49.214;12.270;2022-09-09T10:04:18;1.17;;;0.60;;
49183;SDS011;35021;49.214;12.270;2022-09-09T10:06:51;1.45;;;0.88;;
49183;SDS011;35021;49.214;12.270;2022-09-09T10:09:25;0.73;;;0.70;;
49183;SDS011;35021;49.214;12.270;2022-09-09T10:22:56;1.35;;;0.60;;
49183;SDS011;35021;49.214;12.270;2022-09-09T10:25:43;1.33;;;0.90;;
49183;SDS011;35021;49.214;12.270;2022-09-09T10:37:02;0.73;;;0.52;;
49183;SDS011;35021;49.214;12.270;2022-09-09T10:39:56;2.35;;;0.90;;
49183;SDS011;35021;49.214;12.270;2022-09-09T10:42:41;2.55;;;0.88;;
49183;SDS011;35021;49.214;12.270;2022-09-09T10:45:15;1.10;;;0.70;;
49183;SDS011;35021;49.214;12.270;2022-09-09T10:47:57;1.00;;;0.50;;
49183;SDS011;35021;49.214;12.270;2022-09-09T10:50:44;1.33;;;0.60;;
49183;SDS011;35021;49.214;12.270;2022-09-09T10:56:16;0.60;;;0.57;;
49183;SDS011;35021;49.214;12.270;2022-09-09T11:01:25;1.05;;;0.60;;
49183;SDS011;35021;49.214;12.270;2022-09-09T11:04:38;1.00;;;0.50;;
49183;SDS011;35021;49.214;12.270;2022-09-09T11:06:44;1.73;;;0.85;;
49183;SDS011;35021;49.214;12.270;2022-09-09T11:09:18;0.68;;;0.60;;
49183;SDS011;35021;49.214;12.270;2022-09-09T11:11:56;0.80;;;0.60;;
49183;SDS011;35021;49.214;12.270;2022-09-09T11:17:11;0.63;;;0.50;;
49183;SDS011;35021;49.214;12.270;2022-09-09T11:19:42;1.02;;;0.70;;
49183;SDS011;35021;49.214;12.270;2022-09-09T11:22:30;1.02;;;0.63;;
49183;SDS011;35021;49.214;12.270;2022-09-09T11:25:01;0.93;;;0.60;;
49183;SDS011;35021;49.214;12.270;2022-09-09T11:33:35;1.27;;;0.60;;
49183;SDS011;35021;49.214;12.270;2022-09-09T11:36:36;1.52;;;0.70;;
49183;SDS011;35021;49.214;12.270;2022-09-09T11:39:35;1.02;;;0.63;;
49183;SDS011;35021;49.214;12.270;2022-09-09T11:44:40;0.73;;;0.50;;
49183;SDS011;35021;49.214;12.270;2022-09-09T11:47:19;1.13;;;0.50;;
49183;SDS011;35021;49.214;12.270;2022-09-09T11:53:06;0.57;;;0.57;;
49183;SDS011;35021;49.214;12.270;2022-09-09T11:56:04;0.85;;;0.60;;
49183;SDS011;35021;49.214;12.270;2022-09-09T11:58:38;0.98;;;0.60;;
49183;SDS011;35021;49.214;12.270;2022-09-09T12:09:22;1.27;;;0.50;;
49183;SDS011;35021;49.214;12.270;2022-09-09T12:12:05;0.47;;;0.47;;
49183;SDS011;35021;49.214;12.270;2022-09-09T12:17:29;0.73;;;0.50;;
49183;SDS011;35021;49.214;12.270;2022-09-09T12:20:06;2.25;;;0.60;;
49183;SDS011;35021;49.214;12.270;2022-09-09T12:22:47;1.15;;;0.55;;
49183;SDS011;35021;49.214;12.270;2022-09-09T12:33:44;0.52;;;0.40;;
49183;SDS011;35021;49.214;12.270;2022-09-09T12:36:15;1.17;;;0.63;;
49183;SDS011;35021;49.214;12.270;2022-09-09T12:38:55;0.95;;;0.50;;
49183;SDS011;35021;49.214;12.270;2022-09-09T12:41:36;1.35;;;0.77;;
49183;SDS011;35021;49.214;12.270;2022-09-09T12:44:08;1.00;;;0.60;;
49183;SDS011;35021;49.214;12.270;2022-09-09T12:46:38;0.63;;;0.50;;
49183;SDS011;35021;49.214;12.270;2022-09-09T12:52:07;1.23;;;0.70;;
49183;SDS011;35021;49.214;12.270;2022-09-09T12:54:56;0.88;;;0.60;;
49183;SDS011;35021;49.214;12.270;2022-09-09T12:57:25;0.98;;;0.50;;
49183;SDS011;35021;49.214;12.270;2022-09-09T13:00:04;0.60;;;0.50;;
49183;SDS011;35021;49.214;12.270;2022-09-09T13:02:33;1.08;;;0.65;;
49183;SDS011;35021;49.214;12.270;2022-09-09T13:05:13;1.20;;;0.70;;
49183;SDS011;35021;49.214;12.270;2022-09-09T13:07:43;1.38;;;0.60;;
49183;SDS011;35021;49.214;12.270;2022-09-09T13:10:11;0.68;;;0.55;;
49183;SDS011;35021;49.214;12.270;2022-09-09T13:12:50;0.77;;;0.57;;
49183;SDS011;35021;49.214;12.270;2022-09-09T13:15:24;1.60;;;0.70;;
49183;SDS011;35021;49.214;12.270;2022-09-09T13:17:55;0.63;;;0.50;;
49183;SDS011;35021;49.214;12.270;2022-09-09T13:20:28;1.17;;;0.57;;
49183;SDS011;35021;49.214;12.270;2022-09-09T13:22:57;1.52;;;0.50;;
49183;SDS011;35021;49.214;12.270;2022-09-09T13:25:25;0.77;;;0.55;;
49183;SDS011;35021;49.214;12.270;2022-09-09T13:28:01;0.65;;;0.50;;
49183;SDS011;35021;49.214;12.270;2022-09-09T13:30:30;0.90;;;0.52;;
49183;SDS011;35021;49.214;12.270;2022-09-09T13:33:04;0.68;;;0.50;;
49183;SDS011;35021;49.214;12.270;2022-09-09T13:38:27;1.50;;;0.60;;
49183;SDS011;35021;49.214;12.270;2022-09-09T13:43:24;1.40;;;0.60;;
49183;SDS011;35021;49.214;12.270;2022-09-09T13:45:52;1.00;;;0.70;;
49183;SDS011;35021;49.214;12.270;2022-09-09T13:48:22;1.15;;;0.65;;
49183;SDS011;35021;49.214;12.270;2022-09-09T13:50:56;1.40;;;0.70;;
49183;SDS011;35021;49.214;12.270;2022-09-09T13:53:29;0.43;;;0.40;;
49183;SDS011;35021;49.214;12.270;2022-09-09T13:55:57;1.73;;;0.98;;
49183;SDS011;35021;49.214;12.270;2022-09-09T13:58:24;1.55;;;0.68;;
49183;SDS011;35021;49.214;12.270;2022-09-09T14:00:52;1.40;;;0.68;;
49183;SDS011;35021;49.214;12.270;2022-09-09T14:03:19;1.52;;;0.70;;
49183;SDS011;35021;49.214;12.270;2022-09-09T14:05:47;1.50;;;0.70;;
49183;SDS011;35021;49.214;12.270;2022-09-09T14:08:20;2.13;;;0.90;;
49183;SDS011;35021;49.214;12.270;2022-09-09T14:10:49;1.33;;;0.60;;
49183;SDS011;35021;49.214;12.270;2022-09-09T14:13:16;3.20;;;0.73;;
49183;SDS011;35021;49.214;12.270;2022-09-09T14:15:43;1.85;;;0.80;;
49183;SDS011;35021;49.214;12.270;2022-09-09T14:18:11;0.93;;;0.70;;
49183;SDS011;35021;49.214;12.270;2022-09-09T14:20:39;1.52;;;0.70;;
49183;SDS011;35021;49.214;12.270;2022-09-09T14:23:08;1.25;;;0.70;;
49183;SDS011;35021;49.214;12.270;2022-09-09T14:25:39;1.25;;;0.70;;
49183;SDS011;35021;49.214;12.270;2022-09-09T14:28:08;2.22;;;0.82;;
49183;SDS011;35021;49.214;12.270;2022-09-09T14:30:37;1.38;;;0.60;;
49183;SDS011;35021;49.214;12.270;2022-09-09T14:33:04;1.30;;;0.80;;
49183;SDS011;35021;49.214;12.270;2022-09-09T14:35:32;1.33;;;0.55;;
49183;SDS011;35021;49.214;12.270;2022-09-09T14:37:59;1.05;;;0.50;;
49183;SDS011;35021;49.214;12.270;2022-09-09T14:40:28;1.58;;;0.68;;
49183;SDS011;35021;49.214;12.270;2022-09-09T14:42:55;1.15;;;0.75;;
49183;SDS011;35021;49.214;12.270;2022-09-09T14:45:23;1.40;;;0.80;;
49183;SDS011;35021;49.214;12.270;2022-09-09T14:47:51;1.27;;;0.68;;
49183;SDS011;35021;49.214;12.270;2022-09-09T14:50:18;1.20;;;0.60;;
49183;SDS011;35021;49.214;12.270;2022-09-09T14:52:46;1.50;;;0.80;;
49183;SDS011;35021;49.214;12.270;2022-09-09T14:55:13;1.00;;;0.70;;
49183;SDS011;35021;49.214;12.270;2022-09-09T14:57:41;1.55;;;0.68;;
49183;SDS011;35021;49.214;12.270;2022-09-09T15:00:08;0.98;;;0.57;;
49183;SDS011;35021;49.214;12.270;2022-09-09T15:02:36;2.13;;;0.70;;
49183;SDS011;35021;49.214;12.270;2022-09-09T15:05:03;0.80;;;0.50;;
49183;SDS011;35021;49.214;12.270;2022-09-09T15:07:30;1.70;;;0.60;;
49183;SDS011;35021;49.214;12.270;2022-09-09T15:09:58;1.52;;;0.80;;
49183;SDS011;35021;49.214;12.270;2022-09-09T15:12:24;2.65;;;0.68;;
49183;SDS011;35021;49.214;12.270;2022-09-09T15:14:51;0.95;;;0.60;;
49183;SDS011;35021;49.214;12.270;2022-09-09T15:17:19;0.82;;;0.50;;
49183;SDS011;35021;49.214;12.270;2022-09-09T15:19:46;1.92;;;0.50;;
49183;SDS011;35021;49.214;12.270;2022-09-09T15:22:13;1.50;;;0.65;;
49183;SDS011;35021;49.214;12.270;2022-09-09T15:24:40;1.38;;;0.70;;
49183;SDS011;35021;49.214;12.270;2022-09-09T15:27:07;0.77;;;0.60;;
49183;SDS011;35021;49.214;12.270;2022-09-09T15:29:33;1.70;;;0.70;;
49183;SDS011;35021;49.214;12.270;2022-09-09T15:32:00;1.08;;;0.60;;
49183;SDS011;35021;49.214;12.270;2022-09-09T15:34:27;1.58;;;0.50;;
49183;SDS011;35021;49.214;12.270;2022-09-09T15:36:54;1.00;;;0.60;;
49183;SDS011;35021;49.214;12.270;2022-09-09T15:39:21;1.27;;;0.60;;
49183;SDS011;35021;49.214;12.270;2022-09-09T15:41:48;1.63;;;0.60;;
49183;SDS011;35021;49.214;12.270;2022-09-09T15:44:15;0.70;;;0.43;;
49183;SDS011;35021;49.214;12.270;2022-09-09T15:46:43;0.82;;;0.60;;
49183;SDS011;35021;49.214;12.270;2022-09-09T15:49:23;0.90;;;0.50;;
49183;SDS011;35021;49.214;12.270;2022-09-09T15:51:55;0.85;;;0.57;;
49183;SDS011;35021;49.214;12.270;2022-09-09T15:54:24;0.68;;;0.50;;
49183;SDS011;35021;49.214;12.270;2022-09-09T15:56:53;1.15;;;0.73;;
49183;SDS011;35021;49.214;12.270;2022-09-09T15:59:25;0.57;;;0.50;;
49183;SDS011;35021;49.214;12.270;2022-09-09T16:01:56;0.65;;;0.50;;
49183;SDS011;35021;49.214;12.270;2022-09-09T16:04:23;1.60;;;0.60;;
49183;SDS011;35021;49.214;12.270;2022-09-09T16:06:51;0.80;;;0.50;;
49183;SDS011;35021;49.214;12.270;2022-09-09T16:09:19;0.93;;;0.70;;
49183;SDS011;35021;49.214;12.270;2022-09-09T16:11:46;0.45;;;0.40;;
49183;SDS011;35021;49.214;12.270;2022-09-09T16:14:14;0.40;;;0.40;;
49183;SDS011;35021;49.214;12.270;2022-09-09T16:16:42;0.80;;;0.50;;
49183;SDS011;35021;49.214;12.270;2022-09-09T16:19:09;0.63;;;0.50;;
49183;SDS011;35021;49.214;12.270;2022-09-09T16:21:40;1.83;;;0.60;;
49183;SDS011;35021;49.214;12.270;2022-09-09T16:24:12;1.08;;;0.52;;
49183;SDS011;35021;49.214;12.270;2022-09-09T16:26:41;1.20;;;0.70;;
49183;SDS011;35021;49.214;12.270;2022-09-09T16:29:12;2.92;;;0.73;;
49183;SDS011;35021;49.214;12.270;2022-09-09T16:31:40;1.23;;;0.68;;
49183;SDS011;35021;49.214;12.270;2022-09-09T16:34:08;1.15;;;0.75;;
49183;SDS011;35021;49.214;12.270;2022-09-09T16:36:36;1.40;;;0.60;;
49183;SDS011;35021;49.214;12.270;2022-09-09T16:39:09;0.55;;;0.40;;
49183;SDS011;35021;49.214;12.270;2022-09-09T16:41:38;0.57;;;0.40;;
49183;SDS011;35021;49.214;12.270;2022-09-09T16:44:07;1.00;;;0.80;;
49183;SDS011;35021;49.214;12.270;2022-09-09T16:46:37;1.23;;;0.65;;
49183;SDS011;35021;49.214;12.270;2022-09-09T16:49:07;1.77;;;0.70;;
49183;SDS011;35021;49.214;12.270;2022-09-09T16:51:36;1.60;;;0.52;;
49183;SDS011;35021;49.214;12.270;2022-09-09T16:54:08;0.80;;;0.50;;
49183;SDS011;35021;49.214;12.270;2022-09-09T16:56:36;1.35;;;0.60;;
49183;SDS011;35021;49.214;12.270;2022-09-09T16:59:08;1.33;;;0.70;;
49183;SDS011;35021;49.214;12.270;2022-09-09T17:01:38;0.90;;;0.60;;
49183;SDS011;35021;49.214;12.270;2022-09-09T17:04:16;0.75;;;0.50;;
49183;SDS011;35021;49.214;12.270;2022-09-09T17:06:50;0.93;;;0.52;;
49183;SDS011;35021;49.214;12.270;2022-09-09T17:09:19;1.75;;;0.90;;
49183;SDS011;35021;49.214;12.270;2022-09-09T17:11:46;3.10;;;0.70;;
49183;SDS011;35021;49.214;12.270;2022-09-09T17:14:15;1.08;;;0.50;;